createdAt,value
2023-07-07T00:02:24.250Z,97435.46
2023-07-07T00:04:51.918Z,97436.05
2023-07-07T00:07:19.077Z,97434.23
2023-07-07T00:09:45.848Z,97439.45
2023-07-07T00:12:13.755Z,97440.94
2023-07-07T00:14:40.653Z,97441.33
2023-07-07T00:17:07.359Z,97444.70
2023-07-07T00:19:34.891Z,97445.52
2023-07-07T00:22:03.096Z,97442.23
2023-07-07T00:24:29.964Z,97438.24
2023-07-07T00:26:56.692Z,97441.77
2023-07-07T00:29:23.753Z,97443.19
2023-07-07T00:31:50.520Z,97437.23
2023-07-07T00:34:17.242Z,97438.39
2023-07-07T00:36:43.996Z,97435.40
2023-07-07T00:39:10.958Z,97432.48
2023-07-07T00:41:37.740Z,97434.14
2023-07-07T00:44:07.504Z,97432.13
2023-07-07T00:46:37.674Z,97427.81
2023-07-07T00:49:09.144Z,97421.88
2023-07-07T00:51:44.983Z,97422.87
2023-07-07T00:54:17.692Z,97419.38
2023-07-07T00:56:49.495Z,97419.11
2023-07-07T00:59:21.506Z,97418.95
2023-07-07T01:01:53.469Z,97411.09
2023-07-07T01:04:22.507Z,97413.30
2023-07-07T01:06:53.175Z,97417.23
2023-07-07T01:09:19.980Z,97420.85
2023-07-07T01:11:47.662Z,97422.66
2023-07-07T01:14:21.741Z,97422.38
2023-07-07T01:16:57.249Z,97419.50
2023-07-07T01:19:33.345Z,97419.11
2023-07-07T01:22:20.188Z,97421.94
2023-07-07T01:24:52.661Z,97428.34
2023-07-07T01:27:33.014Z,97424.87
2023-07-07T01:30:26.485Z,97422.63
2023-07-07T01:32:53.727Z,97422.16
2023-07-07T01:35:22.138Z,97419.63
2023-07-07T01:37:57.381Z,97428.70
2023-07-07T01:40:50.812Z,97425.84
2023-07-07T01:43:25.122Z,97428.05
2023-07-07T01:46:12.294Z,97426.85
2023-07-07T01:48:55.947Z,97427.65
2023-07-07T01:51:28.849Z,97435.13
2023-07-07T01:53:57.826Z,97432.35
2023-07-07T01:56:29.125Z,97436.13
2023-07-07T01:58:56.115Z,97438.87
2023-07-07T02:01:22.887Z,97437.53
2023-07-07T02:03:49.726Z,97439.86
2023-07-07T02:06:16.429Z,97439.14
2023-07-07T02:08:45.288Z,97439.39
2023-07-07T02:11:12.559Z,97436.34
2023-07-07T02:13:39.485Z,97431.70
2023-07-07T02:16:07.801Z,97427.55
2023-07-07T02:18:38.546Z,97423.61
2023-07-07T02:21:06.187Z,97424.56
2023-07-07T02:23:33.146Z,97426.06
2023-07-07T02:25:59.993Z,97424.04
2023-07-07T02:28:26.664Z,97427.77
2023-07-07T02:30:54.764Z,97425.48
2023-07-07T02:33:31.360Z,97429.14
2023-07-07T02:36:05.967Z,97424.52
2023-07-07T02:38:33.912Z,97422.89
2023-07-07T02:41:00.919Z,97421.53
2023-07-07T02:43:28.807Z,97419.48
2023-07-07T02:45:56.685Z,97420.77
2023-07-07T02:48:23.509Z,97424.48
2023-07-07T02:50:57.573Z,97426.17
2023-07-07T02:53:29.338Z,97434.71
2023-07-07T02:55:56.451Z,97438.95
2023-07-07T02:58:23.752Z,97445.08
2023-07-07T03:00:51.712Z,97452.64
2023-07-07T03:03:20.221Z,97460.15
2023-07-07T03:05:47.324Z,97459.82
2023-07-07T03:08:14.309Z,97459.05
2023-07-07T03:10:42.429Z,97464.16
2023-07-07T03:13:10.667Z,97464.44
2023-07-07T03:15:40.491Z,97476.54
2023-07-07T03:18:15.491Z,97475.20
2023-07-07T03:20:48.559Z,97469.36
2023-07-07T03:23:18.207Z,97470.32
2023-07-07T03:25:45.086Z,97466.15
2023-07-07T03:28:12.674Z,97466.05
2023-07-07T03:30:41.642Z,97466.66
2023-07-07T03:33:19.007Z,97462.32
2023-07-07T03:35:47.252Z,97463.89
2023-07-07T03:38:15.131Z,97465.75
2023-07-07T03:40:49.654Z,97467.00
2023-07-07T03:43:20.352Z,97457.84
2023-07-07T03:45:47.300Z,97466.39
2023-07-07T03:48:14.187Z,97465.41
2023-07-07T03:50:41.024Z,97469.34
2023-07-07T03:53:07.743Z,97469.77
2023-07-07T03:55:35.127Z,97466.70
2023-07-07T03:58:02.629Z,97464.85
2023-07-07T04:00:29.299Z,97465.08
2023-07-07T04:02:56.118Z,97467.59
2023-07-07T04:05:23.085Z,97470.05
2023-07-07T04:07:49.862Z,97475.89
2023-07-07T04:10:17.184Z,97478.44
2023-07-07T04:12:43.945Z,97476.48
2023-07-07T04:15:11.003Z,97477.95
2023-07-07T04:17:37.719Z,97478.36
2023-07-07T04:20:06.122Z,97483.75
2023-07-07T04:22:32.852Z,97483.09
2023-07-07T04:25:14.201Z,97485.61
2023-07-07T04:27:42.592Z,97492.41
2023-07-07T04:30:10.587Z,97496.93
2023-07-07T04:32:38.705Z,97500.16
2023-07-07T04:35:06.205Z,97501.23
2023-07-07T04:37:33.264Z,97500.20
2023-07-07T04:40:00.058Z,97502.77
2023-07-07T04:42:26.668Z,97501.54
2023-07-07T04:44:53.627Z,97500.14
2023-07-07T04:47:20.299Z,97496.45
2023-07-07T04:49:47.028Z,97497.40
2023-07-07T04:52:13.729Z,97498.55
2023-07-07T04:54:40.486Z,97499.85
2023-07-07T04:57:07.355Z,97496.35
2023-07-07T04:59:34.118Z,97493.06
2023-07-07T05:02:01.103Z,97494.88
2023-07-07T05:04:28.097Z,97497.58
2023-07-07T05:06:54.919Z,97499.36
2023-07-07T05:09:21.585Z,97498.98
2023-07-07T05:11:48.594Z,97501.13
2023-07-07T05:14:15.437Z,97505.58
2023-07-07T05:16:42.646Z,97506.68
2023-07-07T05:19:09.751Z,97504.13
2023-07-07T05:21:36.491Z,97504.48
2023-07-07T05:24:03.699Z,97508.02
2023-07-07T05:26:30.524Z,97507.76
2023-07-07T05:29:00.687Z,97506.00
2023-07-07T05:31:27.537Z,97511.65
2023-07-07T05:33:54.436Z,97515.87
2023-07-07T05:36:21.392Z,97512.06
2023-07-07T05:38:48.183Z,97512.40
2023-07-07T05:41:15.331Z,97515.11
2023-07-07T05:43:42.401Z,97516.47
2023-07-07T05:46:22.860Z,97517.15
2023-07-07T05:48:49.980Z,97512.17
2023-07-07T05:51:19.253Z,97511.69
2023-07-07T05:53:47.748Z,97511.62
2023-07-07T05:56:25.163Z,97511.21
2023-07-07T05:58:55.304Z,97512.45
2023-07-07T06:01:22.869Z,97513.02
2023-07-07T06:03:49.740Z,97518.40
2023-07-07T06:06:16.581Z,97517.61
2023-07-07T06:08:43.467Z,97519.36
2023-07-07T06:11:10.307Z,97517.70
2023-07-07T06:13:37.192Z,97513.98
2023-07-07T06:16:06.004Z,97510.65
2023-07-07T06:18:32.886Z,97507.52
2023-07-07T06:21:00.966Z,97504.46
2023-07-07T06:23:29.602Z,97503.02
2023-07-07T06:25:56.293Z,97500.63
2023-07-07T06:28:23.267Z,97502.55
2023-07-07T06:30:51.729Z,97502.73
2023-07-07T06:33:21.116Z,97498.55
2023-07-07T06:35:50.174Z,97499.30
2023-07-07T06:38:17.707Z,97502.26
2023-07-07T06:40:47.054Z,97500.84
2023-07-07T06:43:18.427Z,97499.88
2023-07-07T06:45:50.896Z,97503.09
2023-07-07T06:48:17.778Z,97500.89
2023-07-07T06:50:44.617Z,97499.77
2023-07-07T06:53:11.504Z,97503.98
2023-07-07T06:55:38.960Z,97507.05
2023-07-07T06:58:05.744Z,97511.73
2023-07-07T07:00:33.076Z,97512.05
2023-07-07T07:02:59.869Z,97520.54
2023-07-07T07:05:26.721Z,97522.57
2023-07-07T07:07:53.590Z,97530.76
2023-07-07T07:10:20.447Z,97527.34
2023-07-07T07:12:48.843Z,97525.30
2023-07-07T07:15:15.934Z,97524.63
2023-07-07T07:17:42.753Z,97527.26
2023-07-07T07:20:11.755Z,97523.63
2023-07-07T07:22:38.486Z,97519.70
2023-07-07T07:25:05.801Z,97523.21
2023-07-07T07:27:32.497Z,97520.20
2023-07-07T07:29:59.288Z,97516.30
2023-07-07T07:32:25.984Z,97524.23
2023-07-07T07:34:52.696Z,97524.64
2023-07-07T07:37:19.588Z,97525.11
2023-07-07T07:39:46.283Z,97522.66
2023-07-07T07:42:12.956Z,97517.98
2023-07-07T07:44:39.652Z,97514.99
2023-07-07T07:47:06.752Z,97516.39
2023-07-07T07:49:33.485Z,97513.48
2023-07-07T07:52:00.554Z,97508.23
2023-07-07T07:54:27.280Z,97506.27
2023-07-07T07:56:55.963Z,97503.77
2023-07-07T07:59:23.781Z,97503.09
2023-07-07T08:01:52.026Z,97497.89
2023-07-07T08:04:19.525Z,97502.81
2023-07-07T08:06:46.325Z,97501.50
2023-07-07T08:09:13.109Z,97498.44
2023-07-07T08:11:43.058Z,97503.04
2023-07-07T08:14:13.703Z,97502.83
2023-07-07T08:16:40.619Z,97504.93
2023-07-07T08:19:08.497Z,97508.74
2023-07-07T08:21:36.469Z,97503.73
2023-07-07T08:24:06.118Z,97500.18
2023-07-07T08:26:34.313Z,97495.92
2023-07-07T08:29:01.593Z,97502.92
2023-07-07T08:31:28.574Z,97502.44
2023-07-07T08:34:00.627Z,97501.52
2023-07-07T08:36:29.871Z,97498.95
2023-07-07T08:39:17.551Z,97497.98
2023-07-07T08:41:53.383Z,97487.08
2023-07-07T08:44:23.062Z,97483.96
2023-07-07T08:46:58.898Z,97484.36
2023-07-07T08:49:39.068Z,97481.36
2023-07-07T08:52:27.776Z,97480.43
2023-07-07T08:55:00.237Z,97482.74
2023-07-07T08:57:31.484Z,97482.27
2023-07-07T09:00:17.703Z,97485.98
2023-07-07T09:02:47.440Z,97484.98
2023-07-07T09:05:59.159Z,97485.59
2023-07-07T09:09:00.067Z,97481.46
2023-07-07T09:11:53.220Z,97483.48
2023-07-07T09:14:20.486Z,97482.65
2023-07-07T09:16:50.353Z,97484.14
2023-07-07T09:19:25.493Z,97483.60
2023-07-07T09:22:00.465Z,97483.58
2023-07-07T09:24:53.404Z,97476.80
2023-07-07T09:27:30.763Z,97475.32
2023-07-07T09:30:11.179Z,97474.47
2023-07-07T09:32:38.804Z,97471.30
2023-07-07T09:35:14.272Z,97473.55
2023-07-07T09:38:23.166Z,97463.50
2023-07-07T09:41:00.713Z,97463.34
2023-07-07T09:44:00.359Z,97462.73
2023-07-07T09:46:47.576Z,97463.26
2023-07-07T09:49:35.348Z,97459.89
2023-07-07T09:52:36.767Z,97460.34
2023-07-07T09:55:12.923Z,97456.73
2023-07-07T09:57:46.122Z,97454.70
2023-07-07T10:00:21.012Z,97453.99
2023-07-07T10:02:51.772Z,97444.85
2023-07-07T10:05:25.779Z,97440.48
2023-07-07T10:07:52.987Z,97438.77
2023-07-07T10:10:19.969Z,97442.48
2023-07-07T10:12:46.896Z,97434.49
2023-07-07T10:15:47.651Z,97426.52
2023-07-07T10:18:28.392Z,97422.94
2023-07-07T10:21:09.678Z,97418.23
2023-07-07T10:23:39.345Z,97411.91
2023-07-07T10:26:06.860Z,97408.00
2023-07-07T10:28:34.174Z,97408.52
2023-07-07T10:31:02.267Z,97398.96
2023-07-07T10:33:29.251Z,97393.23
2023-07-07T10:35:55.975Z,97391.84
2023-07-07T10:38:24.154Z,97390.83
2023-07-07T10:40:51.434Z,97390.10
2023-07-07T10:43:19.655Z,97389.36
2023-07-07T10:45:48.716Z,97384.45
2023-07-07T10:48:16.566Z,97370.86
2023-07-07T10:50:52.222Z,97371.04
2023-07-07T10:53:23.279Z,97370.05
2023-07-07T10:56:09.387Z,97367.48
2023-07-07T10:58:54.397Z,97366.16
2023-07-07T11:02:05.254Z,97367.41
2023-07-07T11:04:46.131Z,97363.75
2023-07-07T11:07:16.082Z,97361.27
2023-07-07T11:10:12.146Z,97361.28
2023-07-07T11:12:51.246Z,97360.82
2023-07-07T11:15:37.377Z,97357.09
2023-07-07T11:18:18.682Z,97355.80
2023-07-07T11:21:06.475Z,97352.83
2023-07-07T11:23:39.238Z,97349.04
2023-07-07T11:26:27.696Z,97350.05
2023-07-07T11:29:10.355Z,97349.24
2023-07-07T11:32:06.702Z,97346.82
2023-07-07T11:35:04.955Z,97348.84
2023-07-07T11:37:45.849Z,97357.77
2023-07-07T11:40:43.984Z,97354.89
2023-07-07T11:43:16.563Z,97362.34
2023-07-07T11:46:01.301Z,97361.92
2023-07-07T11:48:54.547Z,97356.58
2023-07-07T11:51:50.304Z,97348.45
2023-07-07T11:54:35.912Z,97344.21
2023-07-07T11:57:49.814Z,97338.02
2023-07-07T12:00:25.813Z,97336.63
2023-07-07T12:03:07.657Z,97335.61
2023-07-07T12:05:37.821Z,97344.16
2023-07-07T12:08:16.108Z,97339.64
2023-07-07T12:10:51.242Z,97332.82
2023-07-07T12:13:26.877Z,97326.95
2023-07-07T12:16:21.472Z,97325.51
2023-07-07T12:18:52.276Z,97319.77
2023-07-07T12:21:34.531Z,97318.86
2023-07-07T12:24:29.527Z,97324.86
2023-07-07T12:27:09.216Z,97328.19
2023-07-07T12:29:40.174Z,97337.13
2023-07-07T12:32:08.132Z,97345.89
2023-07-07T12:34:43.830Z,97347.80
2023-07-07T12:37:22.501Z,97355.56
2023-07-07T12:40:04.789Z,97364.64
2023-07-07T12:42:33.342Z,97374.89
2023-07-07T12:45:31.357Z,97391.48
2023-07-07T12:48:19.371Z,97403.92
2023-07-07T12:50:48.394Z,97402.39
2023-07-07T12:53:22.200Z,97401.32
2023-07-07T12:56:07.453Z,97398.27
2023-07-07T12:58:37.034Z,97396.94
2023-07-07T13:01:30.227Z,97399.48
2023-07-07T13:04:08.275Z,97409.80
2023-07-07T13:06:40.445Z,97421.98
2023-07-07T13:09:13.317Z,97422.24
2023-07-07T13:11:47.428Z,97427.11
2023-07-07T13:14:26.556Z,97433.98
2023-07-07T13:16:55.666Z,97437.38
2023-07-07T13:19:23.365Z,97434.09
2023-07-07T13:21:51.511Z,97434.77
2023-07-07T13:24:21.343Z,97435.77
2023-07-07T13:26:48.138Z,97431.77
2023-07-07T13:29:14.891Z,97430.64
2023-07-07T13:31:43.187Z,97437.46
2023-07-07T13:34:18.464Z,97442.30
2023-07-07T13:36:47.205Z,97445.70
2023-07-07T13:39:15.298Z,97444.59
2023-07-07T13:41:46.499Z,97442.55
2023-07-07T13:44:18.857Z,97440.61
2023-07-07T13:46:50.510Z,97445.25
2023-07-07T13:49:19.905Z,97446.02
2023-07-07T13:51:52.999Z,97439.27
2023-07-07T13:54:22.542Z,97441.64
2023-07-07T13:57:03.297Z,97432.61
2023-07-07T13:59:30.953Z,97441.01
2023-07-07T14:01:59.289Z,97448.10
2023-07-07T14:04:37.329Z,97456.72
2023-07-07T14:07:04.958Z,97451.76
2023-07-07T14:09:42.263Z,97451.60
2023-07-07T14:12:15.361Z,97442.39
2023-07-07T14:14:43.454Z,97444.72
2023-07-07T14:17:22.055Z,97452.40
2023-07-07T14:20:04.093Z,97454.45
2023-07-07T14:22:32.954Z,97457.77
2023-07-07T14:24:59.917Z,97462.15
2023-07-07T14:27:27.623Z,97470.17
2023-07-07T14:29:58.479Z,97474.84
2023-07-07T14:32:33.816Z,97473.80
2023-07-07T14:35:00.710Z,97469.13
2023-07-07T14:37:34.330Z,97471.30
2023-07-07T14:40:31.006Z,97468.55
2023-07-07T14:43:00.217Z,97473.29
2023-07-07T14:45:33.426Z,97473.21
2023-07-07T14:48:02.034Z,97474.47
2023-07-07T14:50:30.079Z,97474.73
2023-07-07T14:52:59.141Z,97476.10
2023-07-07T14:55:29.525Z,97482.94
2023-07-07T14:58:01.598Z,97488.81
2023-07-07T15:00:31.392Z,97489.27
2023-07-07T15:02:58.338Z,97485.44
2023-07-07T15:05:34.110Z,97485.52
2023-07-07T15:08:29.773Z,97477.55
2023-07-07T15:11:12.343Z,97475.34
2023-07-07T15:13:40.298Z,97463.73
2023-07-07T15:16:07.128Z,97463.14
2023-07-07T15:18:33.888Z,97467.02
2023-07-07T15:21:00.681Z,97472.33
2023-07-07T15:23:27.547Z,97482.77
2023-07-07T15:25:54.815Z,97485.32
2023-07-07T15:28:21.494Z,97490.30
2023-07-07T15:30:48.663Z,97486.08
2023-07-07T15:33:17.724Z,97488.55
2023-07-07T15:35:45.128Z,97487.52
2023-07-07T15:38:17.952Z,97484.83
2023-07-07T15:40:44.782Z,97484.89
2023-07-07T15:43:11.770Z,97486.03
2023-07-07T15:45:48.669Z,97489.61
2023-07-07T15:48:20.401Z,97489.40
2023-07-07T15:50:47.152Z,97485.64
2023-07-07T15:53:13.936Z,97482.55
2023-07-07T15:55:40.682Z,97480.58
2023-07-07T15:58:11.447Z,97481.90
2023-07-07T16:00:42.079Z,97484.14
2023-07-07T16:03:08.991Z,97475.95
2023-07-07T16:05:36.344Z,97471.30
2023-07-07T16:08:03.137Z,97466.48
2023-07-07T16:10:29.895Z,97466.10
2023-07-07T16:12:56.788Z,97457.95
2023-07-07T16:15:26.162Z,97457.14
2023-07-07T16:17:55.036Z,97457.99
2023-07-07T16:20:26.898Z,97460.14
2023-07-07T16:22:54.697Z,97458.05
2023-07-07T16:25:21.885Z,97466.56
2023-07-07T16:27:48.731Z,97477.27
2023-07-07T16:30:36.214Z,97484.91
2023-07-07T16:33:03.195Z,97502.80
2023-07-07T16:35:30.052Z,97512.61
2023-07-07T16:37:56.832Z,97522.29
2023-07-07T16:40:44.385Z,97530.71
2023-07-07T16:43:11.105Z,97534.90
2023-07-07T16:45:37.920Z,97536.77
2023-07-07T16:48:12.890Z,97542.41
2023-07-07T16:50:39.676Z,97545.51
2023-07-07T16:53:06.251Z,97546.00
2023-07-07T16:55:34.212Z,97544.34
2023-07-07T16:58:01.049Z,97548.37
2023-07-07T17:00:32.794Z,97547.08
2023-07-07T17:02:59.836Z,97551.31
2023-07-07T17:05:26.752Z,97557.31
2023-07-07T17:07:53.574Z,97561.98
2023-07-07T17:10:29.459Z,97562.30
2023-07-07T17:12:56.298Z,97561.93
2023-07-07T17:15:23.025Z,97567.04
2023-07-07T17:17:49.928Z,97567.04
2023-07-07T17:20:23.930Z,97569.13
2023-07-07T17:22:52.023Z,97564.85
2023-07-07T17:25:20.063Z,97566.67
2023-07-07T17:27:49.205Z,97570.24
2023-07-07T17:30:26.271Z,97571.01
2023-07-07T17:32:53.760Z,97573.73
2023-07-07T17:35:23.376Z,97580.36
2023-07-07T17:37:50.882Z,97582.29
2023-07-07T17:40:39.696Z,97581.27
2023-07-07T17:43:06.761Z,97579.73
2023-07-07T17:45:33.743Z,97581.20
2023-07-07T17:48:00.679Z,97579.82
2023-07-07T17:50:41.214Z,97585.00
2023-07-07T17:53:08.089Z,97588.54
2023-07-07T17:55:37.221Z,97586.92
2023-07-07T17:58:11.479Z,97589.13
2023-07-07T18:00:39.972Z,97586.27
2023-07-07T18:03:07.075Z,97583.77
2023-07-07T18:05:34.284Z,97587.02
2023-07-07T18:08:01.787Z,97589.20
2023-07-07T18:10:32.037Z,97588.55
2023-07-07T18:12:59.058Z,97589.02
2023-07-07T18:15:27.881Z,97587.25
2023-07-07T18:18:06.000Z,97583.82
2023-07-07T18:21:34.801Z,97585.74
2023-07-07T18:23:29.991Z,97585.33
2023-07-07T18:25:57.325Z,97588.41
2023-07-07T18:28:26.436Z,97597.70
2023-07-07T18:30:57.156Z,97602.30
2023-07-07T18:33:24.592Z,97607.36
2023-07-07T18:35:51.409Z,97611.59
2023-07-07T18:38:22.707Z,97617.00
2023-07-07T18:40:49.821Z,97621.16
2023-07-07T18:43:16.617Z,97626.41
2023-07-07T18:45:43.509Z,97630.64
2023-07-07T18:48:14.962Z,97627.56
2023-07-07T18:50:42.098Z,97632.00
2023-07-07T18:53:08.814Z,97631.95
2023-07-07T18:55:35.513Z,97632.91
2023-07-07T18:58:02.696Z,97630.67
2023-07-07T19:00:36.881Z,97632.21
2023-07-07T19:03:04.003Z,97632.64
2023-07-07T19:05:32.170Z,97631.04
2023-07-07T19:07:59.012Z,97630.15
2023-07-07T19:10:38.484Z,97631.14
2023-07-07T19:13:17.000Z,97633.81
2023-07-07T19:15:46.671Z,97640.38
2023-07-07T19:18:16.458Z,97643.09
2023-07-07T19:20:43.698Z,97649.08
2023-07-07T19:23:13.756Z,97648.95
2023-07-07T19:25:40.790Z,97651.16
2023-07-07T19:28:16.617Z,97651.11
2023-07-07T19:30:43.795Z,97646.91
2023-07-07T19:33:18.441Z,97646.80
2023-07-07T19:35:46.321Z,97651.49
2023-07-07T19:38:20.129Z,97655.48
2023-07-07T19:40:51.022Z,97655.43
2023-07-07T19:43:18.648Z,97653.54
2023-07-07T19:45:50.248Z,97655.88
2023-07-07T19:48:18.470Z,97658.87
2023-07-07T19:50:50.626Z,97653.58
2023-07-07T19:53:17.497Z,97654.38
2023-07-07T19:55:44.955Z,97653.55
2023-07-07T19:58:15.087Z,97656.33
2023-07-07T20:00:42.245Z,97654.16
2023-07-07T20:03:10.556Z,97656.05
2023-07-07T20:05:38.639Z,97657.25
2023-07-07T20:08:14.521Z,97656.20
2023-07-07T20:10:44.053Z,97658.33
2023-07-07T20:13:11.704Z,97658.96
2023-07-07T20:15:39.756Z,97656.29
2023-07-07T20:18:10.797Z,97654.58
2023-07-07T20:20:37.467Z,97655.02
2023-07-07T20:23:22.316Z,97654.79
2023-07-07T20:25:49.452Z,97650.09
2023-07-07T20:28:17.754Z,97646.35
2023-07-07T20:30:44.475Z,97649.54
2023-07-07T20:33:13.339Z,97649.68
2023-07-07T20:35:40.465Z,97650.01
2023-07-07T20:38:12.574Z,97650.97
2023-07-07T20:40:43.381Z,97654.73
2023-07-07T20:43:10.170Z,97655.15
2023-07-07T20:45:37.681Z,97652.61
2023-07-07T20:48:13.209Z,97651.48
2023-07-07T20:50:49.804Z,97652.73
2023-07-07T20:53:16.533Z,97656.73
2023-07-07T20:55:43.312Z,97655.50
2023-07-07T20:58:11.142Z,97658.23
2023-07-07T21:00:42.639Z,97657.96
2023-07-07T21:03:09.482Z,97655.55
2023-07-07T21:05:36.669Z,97660.89
2023-07-07T21:08:12.697Z,97658.91
2023-07-07T21:10:40.120Z,97659.38
2023-07-07T21:13:07.670Z,97653.87
2023-07-07T21:15:34.457Z,97653.01
2023-07-07T21:18:01.242Z,97648.52
2023-07-07T21:20:36.959Z,97653.80
2023-07-07T21:23:10.326Z,97651.94
2023-07-07T21:25:37.363Z,97653.11
2023-07-07T21:28:04.361Z,97649.32
2023-07-07T21:30:31.223Z,97647.69
2023-07-07T21:32:58.063Z,97646.17
2023-07-07T21:35:25.069Z,97647.56
2023-07-07T21:37:51.842Z,97647.70
2023-07-07T21:40:21.938Z,97651.21
2023-07-07T21:42:49.863Z,97653.23
2023-07-07T21:45:19.690Z,97654.89
2023-07-07T21:48:09.577Z,97649.60
2023-07-07T21:50:36.319Z,97645.65
2023-07-07T21:53:03.046Z,97646.63
2023-07-07T21:55:29.759Z,97647.73
2023-07-07T21:57:58.204Z,97646.30
2023-07-07T22:00:27.743Z,97649.93
2023-07-07T22:03:21.287Z,97651.48
2023-07-07T22:05:50.996Z,97651.38
2023-07-07T22:08:18.196Z,97653.09
2023-07-07T22:10:52.494Z,97653.02
2023-07-07T22:13:19.092Z,97652.42
2023-07-07T22:15:46.176Z,97648.09
2023-07-07T22:18:18.474Z,97651.02
2023-07-07T22:20:54.071Z,97655.52
2023-07-07T22:23:20.732Z,97649.70
2023-07-07T22:25:47.665Z,97643.32
2023-07-07T22:28:19.858Z,97642.23
2023-07-07T22:30:53.093Z,97643.73
2023-07-07T22:33:21.860Z,97648.10
2023-07-07T22:35:50.048Z,97645.17
2023-07-07T22:38:22.823Z,97646.30
2023-07-07T22:40:53.220Z,97649.02
2023-07-07T22:43:20.262Z,97652.70
2023-07-07T22:45:59.094Z,97651.11
2023-07-07T22:48:25.806Z,97649.06
2023-07-07T22:50:52.765Z,97651.23
2023-07-07T22:53:19.441Z,97653.50
2023-07-07T22:55:47.726Z,97648.35
2023-07-07T22:58:14.355Z,97646.40
2023-07-07T23:00:41.758Z,97647.10
2023-07-07T23:03:09.062Z,97650.30
2023-07-07T23:05:39.478Z,97648.38
2023-07-07T23:08:24.529Z,97645.33
2023-07-07T23:10:51.892Z,97639.54
2023-07-07T23:13:18.956Z,97644.58
2023-07-07T23:15:46.025Z,97640.43
2023-07-07T23:18:15.950Z,97641.87
2023-07-07T23:20:42.920Z,97650.77
2023-07-07T23:23:10.438Z,97654.34
2023-07-07T23:25:37.708Z,97654.34
2023-07-07T23:28:11.431Z,97651.94
2023-07-07T23:31:06.312Z,97653.48
2023-07-07T23:33:35.756Z,97649.92
2023-07-07T23:36:12.701Z,97649.96
2023-07-07T23:38:39.382Z,97654.70
2023-07-07T23:41:10.108Z,97653.01
2023-07-07T23:43:36.761Z,97655.39
2023-07-07T23:46:08.997Z,97654.55
2023-07-07T23:48:35.814Z,97657.46
2023-07-07T23:51:02.938Z,97659.81
2023-07-07T23:53:30.858Z,97658.21
2023-07-07T23:55:57.760Z,97659.53
2023-07-07T23:58:27.612Z,97656.86
